createdAt,value
2022-11-15T00:00:28.736Z,1048.1
2022-11-15T00:02:12.438Z,1046.9
2022-11-15T00:03:56.158Z,1145.1
2022-11-15T00:05:39.842Z,1159.5
2022-11-15T00:07:23.547Z,1159.3
2022-11-15T00:09:07.250Z,1151
2022-11-15T00:10:50.965Z,1133.9
2022-11-15T00:12:34.714Z,1121.6
2022-11-15T00:14:18.360Z,1120.9
2022-11-15T00:16:02.065Z,1111.6
2022-11-15T00:17:45.840Z,1101
2022-11-15T00:19:29.509Z,1102.2
2022-11-15T00:21:13.176Z,1099.1
2022-11-15T00:22:56.938Z,1098.7
2022-11-15T00:24:40.572Z,1093.6
2022-11-15T00:26:24.277Z,1091
2022-11-15T00:28:07.980Z,1089.7
2022-11-15T00:29:51.686Z,1088.6
2022-11-15T00:31:35.393Z,1088.7
2022-11-15T00:33:19.091Z,1087.9
2022-11-15T00:35:02.812Z,1087.9
2022-11-15T00:36:46.499Z,1085.2
2022-11-15T00:38:30.199Z,1084.1
2022-11-15T00:40:13.893Z,1084.7
2022-11-15T00:41:57.629Z,1083.1
2022-11-15T00:43:41.301Z,1083.2
2022-11-15T00:45:25.012Z,1081.6
2022-11-15T00:47:08.708Z,1085.3
2022-11-15T00:48:52.477Z,1084.6
2022-11-15T00:50:36.119Z,1081
2022-11-15T00:52:19.817Z,1081.1
2022-11-15T00:54:03.530Z,1076.7
2022-11-15T00:55:47.227Z,1074.1
2022-11-15T00:57:30.964Z,1073.7
2022-11-15T00:59:14.627Z,1073.4
2022-11-15T01:00:58.347Z,1071.4
2022-11-15T01:02:42.042Z,1070.1
2022-11-15T01:04:25.735Z,1068.9
2022-11-15T01:06:09.469Z,1069.5
2022-11-15T01:07:53.139Z,1063.2
2022-11-15T01:09:36.847Z,1054.2
2022-11-15T01:11:20.544Z,1060.7
2022-11-15T01:13:04.247Z,1059.9
2022-11-15T01:14:48.000Z,1058.1
2022-11-15T01:16:31.666Z,1059.8
2022-11-15T01:18:15.427Z,1056.3
2022-11-15T01:19:59.128Z,1053.1
2022-11-15T01:21:42.779Z,1052.5
2022-11-15T01:23:26.524Z,1049.5
2022-11-15T01:25:10.165Z,1048.4
2022-11-15T01:26:53.868Z,1046.8
2022-11-15T01:28:37.577Z,1044.7
2022-11-15T01:30:21.282Z,1049.5
2022-11-15T01:32:05.037Z,1047.6
2022-11-15T01:33:48.724Z,1045.8
2022-11-15T01:35:32.392Z,1043.4
2022-11-15T01:37:16.100Z,1037.4
2022-11-15T01:38:59.805Z,1035.6
2022-11-15T01:40:43.516Z,1034.6
2022-11-15T01:42:27.201Z,1034.1
2022-11-15T01:44:10.907Z,1036.5
2022-11-15T01:45:54.611Z,1040.3
2022-11-15T01:47:38.314Z,1037.2
2022-11-15T01:49:22.010Z,1032.3
2022-11-15T01:51:05.715Z,1028.6
2022-11-15T01:52:49.411Z,1022.2
2022-11-15T01:54:33.121Z,1020.6
2022-11-15T01:56:16.832Z,1025.3
2022-11-15T01:58:00.527Z,1024.2
2022-11-15T01:59:44.234Z,1023.3
2022-11-15T02:01:27.936Z,1021.5
2022-11-15T02:03:11.638Z,1018.3
2022-11-15T02:04:55.398Z,1018.4
2022-11-15T02:06:39.032Z,1018.4
2022-11-15T02:08:22.743Z,1019.6
2022-11-15T02:10:06.442Z,1020.7
2022-11-15T02:11:50.146Z,1019.6
2022-11-15T02:13:33.923Z,1013.7
2022-11-15T02:15:17.564Z,1014.2
2022-11-15T02:17:01.256Z,1012.1
2022-11-15T02:18:44.959Z,1007.6
2022-11-15T02:20:28.656Z,1005.8
2022-11-15T02:22:12.374Z,1002
2022-11-15T02:23:56.066Z,1000.6
2022-11-15T02:25:39.766Z,997.8
2022-11-15T02:27:23.466Z,997.1
2022-11-15T02:29:07.167Z,993.1
2022-11-15T02:30:50.888Z,993.4
2022-11-15T02:32:34.590Z,995.6
2022-11-15T02:34:18.342Z,993.6
2022-11-15T02:36:01.986Z,989.9
2022-11-15T02:37:45.687Z,989.3
2022-11-15T02:39:29.387Z,989
2022-11-15T02:41:13.110Z,983.7
2022-11-15T02:42:56.802Z,974.3
2022-11-15T02:44:40.498Z,966.2
2022-11-15T02:46:24.200Z,963.1
2022-11-15T02:48:07.898Z,967
2022-11-15T02:49:51.618Z,970
2022-11-15T02:51:35.313Z,975.5
2022-11-15T02:53:19.043Z,980.6
2022-11-15T02:55:02.708Z,982.8
2022-11-15T02:56:46.410Z,986.5
2022-11-15T02:58:30.183Z,985.8
2022-11-15T03:00:13.842Z,982.9
2022-11-15T03:01:57.523Z,985.7
2022-11-15T03:03:41.219Z,985.7
2022-11-15T03:05:24.922Z,983.1
2022-11-15T03:07:08.625Z,984.8
2022-11-15T03:08:52.331Z,981.4
2022-11-15T03:10:36.051Z,974.6
2022-11-15T03:12:19.788Z,971.9
2022-11-15T03:14:03.444Z,968.8
2022-11-15T03:15:47.142Z,965.1
2022-11-15T03:17:30.919Z,966.5
2022-11-15T03:19:14.537Z,970.2
2022-11-15T03:20:58.293Z,970.7
2022-11-15T03:22:41.955Z,967.8
2022-11-15T03:24:25.660Z,964.6
2022-11-15T03:26:09.350Z,963.8
2022-11-15T03:27:53.084Z,963.1
2022-11-15T03:29:36.765Z,963.9
2022-11-15T03:31:20.462Z,962.1
2022-11-15T03:33:04.172Z,960.7
2022-11-15T03:34:47.906Z,958.3
2022-11-15T03:36:31.568Z,957.5
2022-11-15T03:38:15.307Z,952.8
2022-11-15T03:39:58.974Z,954.7
2022-11-15T03:41:42.708Z,958.9
2022-11-15T03:43:26.452Z,957.9
2022-11-15T03:45:10.086Z,954.1
2022-11-15T03:46:53.819Z,952.6
2022-11-15T03:48:37.532Z,957.4
2022-11-15T03:50:21.197Z,962.6
2022-11-15T03:52:04.946Z,955.3
2022-11-15T03:53:48.598Z,953.1
2022-11-15T03:55:32.327Z,952.5
2022-11-15T03:57:16.013Z,954.8
2022-11-15T03:58:59.707Z,952.8
2022-11-15T04:00:43.405Z,948.5
2022-11-15T04:02:27.178Z,945.2
2022-11-15T04:04:10.859Z,946.9
2022-11-15T04:05:54.533Z,944.7
2022-11-15T04:07:38.257Z,945.9
2022-11-15T04:09:22.046Z,945.3
2022-11-15T04:11:05.640Z,945
2022-11-15T04:12:49.412Z,944.6
2022-11-15T04:14:33.034Z,946.5
2022-11-15T04:16:16.738Z,945
2022-11-15T04:18:00.463Z,944.6
2022-11-15T04:19:44.144Z,943.3
2022-11-15T04:21:27.845Z,940.8
2022-11-15T04:23:11.566Z,935.5
2022-11-15T04:24:55.259Z,935.3
2022-11-15T04:26:38.951Z,936.5
2022-11-15T04:28:22.655Z,937.8
2022-11-15T04:30:06.363Z,938.8
2022-11-15T04:31:50.058Z,940.5
2022-11-15T04:33:33.765Z,940.5
2022-11-15T04:35:17.466Z,940.6
2022-11-15T04:37:01.161Z,942.6
2022-11-15T04:38:44.878Z,938.3
2022-11-15T04:40:28.580Z,938.4
2022-11-15T04:42:12.291Z,934
2022-11-15T04:43:56.049Z,936
2022-11-15T04:45:39.690Z,939.4
2022-11-15T04:47:23.386Z,938.3
2022-11-15T04:49:07.168Z,935
2022-11-15T04:50:50.867Z,939.4
2022-11-15T04:52:34.533Z,938.7
2022-11-15T04:54:18.197Z,940.8
2022-11-15T04:56:01.903Z,940.6
2022-11-15T04:57:45.683Z,942
2022-11-15T04:59:29.300Z,940.3
2022-11-15T05:01:13.013Z,933.9
2022-11-15T05:02:56.724Z,930.6
2022-11-15T05:04:40.414Z,927.6
2022-11-15T05:06:24.117Z,927.2
2022-11-15T05:08:07.825Z,929.4
2022-11-15T05:09:51.523Z,928.1
2022-11-15T05:11:35.231Z,925.7
2022-11-15T05:13:18.928Z,924
2022-11-15T05:15:02.635Z,920.9
2022-11-15T05:16:46.399Z,919.2
2022-11-15T05:18:30.032Z,918.6
2022-11-15T05:20:13.767Z,920.4
2022-11-15T05:21:57.452Z,919.8
2022-11-15T05:23:41.141Z,920.8
2022-11-15T05:25:24.843Z,920.1
2022-11-15T05:27:08.554Z,925
2022-11-15T05:28:52.252Z,928
2022-11-15T05:30:35.963Z,933.2
2022-11-15T05:32:19.647Z,934
2022-11-15T05:34:03.449Z,932
2022-11-15T05:35:47.064Z,931.8
2022-11-15T05:37:30.764Z,933.4
2022-11-15T05:39:14.464Z,933.9
2022-11-15T05:40:58.175Z,928.7
2022-11-15T05:42:41.861Z,924
2022-11-15T05:44:25.596Z,923
2022-11-15T05:46:09.381Z,921.5
2022-11-15T05:47:53.007Z,919.9
2022-11-15T05:49:36.749Z,919
2022-11-15T05:51:20.426Z,917.9
2022-11-15T05:53:04.084Z,917.7
2022-11-15T05:54:47.810Z,917.7
2022-11-15T05:56:31.535Z,919.4
2022-11-15T05:58:15.225Z,919.7
2022-11-15T05:59:58.903Z,923.8
2022-11-15T06:01:42.593Z,924
2022-11-15T06:03:26.301Z,932.4
2022-11-15T06:05:10.015Z,952
2022-11-15T06:06:53.704Z,1078.7
2022-11-15T06:08:37.509Z,1128.1
2022-11-15T06:10:21.110Z,1023.3
2022-11-15T06:12:04.862Z,1041.1
2022-11-15T06:13:48.583Z,1047.7
2022-11-15T06:15:32.219Z,1058.5
2022-11-15T06:17:15.922Z,1074.3
2022-11-15T06:18:59.616Z,1096.4
2022-11-15T06:20:43.342Z,1107
2022-11-15T06:22:27.028Z,1123.6
2022-11-15T06:24:10.754Z,1133.5
2022-11-15T06:25:54.447Z,1134.9
2022-11-15T06:27:38.140Z,1138.1
2022-11-15T06:29:21.906Z,1143.2
2022-11-15T06:31:05.552Z,1162.6
2022-11-15T06:32:49.251Z,1182.6
2022-11-15T06:34:33.035Z,1187.9
2022-11-15T06:36:16.707Z,1165.4
2022-11-15T06:38:00.458Z,1154.6
2022-11-15T06:39:44.124Z,1143.5
2022-11-15T06:41:27.773Z,1143
2022-11-15T06:43:11.464Z,1145.6
2022-11-15T06:44:55.170Z,1147.1
2022-11-15T06:46:38.908Z,1142.8
2022-11-15T06:48:22.579Z,1143.7
2022-11-15T06:50:06.282Z,1146.6
2022-11-15T06:51:50.022Z,1145.6
2022-11-15T06:53:33.690Z,1149.8
2022-11-15T06:55:17.393Z,1155.3
2022-11-15T06:57:01.086Z,1155.4
2022-11-15T06:58:44.811Z,1150.5
2022-11-15T07:00:28.609Z,1142.5
2022-11-15T07:02:12.204Z,1138.8
2022-11-15T07:03:55.908Z,1143.6
2022-11-15T07:05:39.599Z,1150.6
2022-11-15T07:07:23.307Z,1158.4
2022-11-15T07:09:07.007Z,1162.4
2022-11-15T07:10:50.759Z,1161.8
2022-11-15T07:12:34.555Z,1161.4
2022-11-15T07:14:18.207Z,1156.3
2022-11-15T07:16:01.949Z,1148
2022-11-15T07:17:45.542Z,1150.6
2022-11-15T07:19:29.222Z,1150.5
2022-11-15T07:21:12.985Z,1154.3
2022-11-15T07:22:56.733Z,1155.7
2022-11-15T07:24:40.331Z,1160.5
2022-11-15T07:26:24.049Z,1154.4
2022-11-15T07:28:07.739Z,1143.2
2022-11-15T07:29:51.444Z,1143
2022-11-15T07:31:35.159Z,1142.6
2022-11-15T07:33:18.848Z,1139
2022-11-15T07:35:02.554Z,1135.1
2022-11-15T07:36:46.261Z,1133.5
2022-11-15T07:38:30.079Z,1134.2
2022-11-15T07:40:13.751Z,1130.7
2022-11-15T07:41:57.444Z,1128.2
2022-11-15T07:43:41.165Z,1128.1
2022-11-15T07:45:24.770Z,1127.5
2022-11-15T07:47:08.473Z,1125.4
2022-11-15T07:48:52.376Z,1127.2
2022-11-15T07:50:35.943Z,1127.2
2022-11-15T07:52:19.604Z,1124.7
2022-11-15T07:54:03.408Z,1115.6
2022-11-15T07:55:47.016Z,1111.8
2022-11-15T07:57:30.680Z,1105.1
2022-11-15T07:59:14.392Z,1099.5
2022-11-15T08:00:58.085Z,1097.4
2022-11-15T08:02:41.812Z,1097.7
2022-11-15T08:04:25.587Z,1096.3
2022-11-15T08:06:09.195Z,1095.3
2022-11-15T08:07:52.969Z,1082.5
2022-11-15T08:09:36.604Z,1060
2022-11-15T08:11:20.344Z,1053.6
2022-11-15T08:13:04.008Z,1052
2022-11-15T08:14:47.828Z,1051.4
2022-11-15T08:16:31.438Z,1051.9
2022-11-15T08:18:15.109Z,1052.4
2022-11-15T08:19:58.881Z,1051.1
2022-11-15T08:21:42.638Z,1051.5
2022-11-15T08:23:26.214Z,1050.6
2022-11-15T08:25:09.937Z,1052.1
2022-11-15T08:26:53.632Z,1051
2022-11-15T08:28:37.391Z,1050.3
2022-11-15T08:30:21.060Z,1051.2
2022-11-15T08:32:04.751Z,1049.9
2022-11-15T08:33:48.570Z,1056.2
2022-11-15T08:35:32.237Z,1056.9
2022-11-15T08:37:15.873Z,1124
2022-11-15T08:38:59.546Z,1317.9
2022-11-15T08:40:43.262Z,1226.2
2022-11-15T08:42:26.984Z,1136.1
2022-11-15T08:44:10.769Z,1128.3
2022-11-15T08:45:54.449Z,1131
2022-11-15T08:47:38.054Z,1139.3
2022-11-15T08:49:21.761Z,1135.9
2022-11-15T08:51:05.533Z,1136.3
2022-11-15T08:52:49.163Z,1137.1
2022-11-15T08:54:32.862Z,1133.8
2022-11-15T08:56:16.632Z,1129.1
2022-11-15T08:58:00.335Z,1129.2
2022-11-15T08:59:44.069Z,1124.8
2022-11-15T09:01:27.696Z,1119.8
2022-11-15T09:03:11.372Z,1112.9
2022-11-15T09:04:55.082Z,1109.2
2022-11-15T09:06:38.773Z,1106.6
2022-11-15T09:08:22.490Z,1103
2022-11-15T09:10:06.209Z,1096.5
2022-11-15T09:11:50.026Z,1092.8
2022-11-15T09:13:33.634Z,1087.2
2022-11-15T09:15:17.508Z,1085
2022-11-15T09:17:01.128Z,1073.3
2022-11-15T09:18:44.691Z,1039.6
2022-11-15T09:20:28.589Z,1025.5
2022-11-15T09:22:12.204Z,1017.6
2022-11-15T09:23:55.799Z,1014.5
2022-11-15T09:25:39.686Z,1022.3
2022-11-15T09:27:23.448Z,1026
2022-11-15T09:29:07.090Z,1030.1
2022-11-15T09:30:50.612Z,1027.4
2022-11-15T09:32:34.472Z,1026.5
2022-11-15T09:34:18.192Z,1020.7
2022-11-15T09:36:01.734Z,1017.4
2022-11-15T09:37:45.610Z,1013.6
2022-11-15T09:39:29.348Z,1010
2022-11-15T09:41:12.832Z,1004.9
2022-11-15T09:42:56.552Z,1000.6
2022-11-15T09:44:40.268Z,997.4
2022-11-15T09:46:24.034Z,993.1
2022-11-15T09:48:07.758Z,994.1
2022-11-15T09:49:51.498Z,989.6
2022-11-15T09:51:35.229Z,987.8
2022-11-15T09:53:18.916Z,982.7
2022-11-15T09:55:02.672Z,981
2022-11-15T09:56:46.359Z,980.8
2022-11-15T09:58:30.022Z,978
2022-11-15T10:00:13.561Z,978.5
2022-11-15T10:01:57.306Z,967.9
2022-11-15T10:03:41.144Z,970.3
2022-11-15T10:05:24.875Z,962.4
2022-11-15T10:07:08.515Z,946.7
2022-11-15T10:08:52.245Z,933.8
2022-11-15T10:10:35.915Z,933.4
2022-11-15T10:12:19.655Z,932.3
2022-11-15T10:14:03.335Z,929.9
2022-11-15T10:15:47.048Z,926.4
2022-11-15T10:17:30.762Z,924.3
2022-11-15T10:19:14.438Z,923.2
2022-11-15T10:20:58.091Z,922.4
2022-11-15T10:22:41.810Z,918.5
2022-11-15T10:24:25.391Z,914.8
2022-11-15T10:29:36.578Z,905
2022-11-15T10:31:20.407Z,901.1
2022-11-15T10:33:04.075Z,899.1
2022-11-15T10:34:47.729Z,902.4
2022-11-15T10:36:31.458Z,905.2
2022-11-15T10:38:15.093Z,904.6
2022-11-15T10:39:58.778Z,902.3
2022-11-15T10:41:42.503Z,901
2022-11-15T10:43:26.123Z,898.9
2022-11-15T10:45:09.862Z,898.4
2022-11-15T10:46:53.529Z,897.5
2022-11-15T10:48:37.299Z,892.7
2022-11-15T10:50:20.970Z,886.3
2022-11-15T10:52:04.728Z,884.2
2022-11-15T10:53:48.345Z,880.7
2022-11-15T10:55:32.115Z,879.7
2022-11-15T10:57:15.721Z,880.5
2022-11-15T10:58:59.610Z,878.5
2022-11-15T11:00:43.128Z,877
2022-11-15T11:02:26.865Z,875.7
2022-11-15T11:04:10.528Z,876.5
2022-11-15T11:05:54.380Z,876.5
2022-11-15T11:07:37.935Z,871.1
2022-11-15T11:09:21.792Z,866.6
2022-11-15T11:11:05.476Z,867.2
2022-11-15T11:12:49.048Z,864.4
2022-11-15T11:14:32.795Z,863
2022-11-15T11:16:16.510Z,863
2022-11-15T11:18:00.222Z,862.7
2022-11-15T11:19:43.920Z,860.9
2022-11-15T11:21:27.573Z,863
2022-11-15T11:23:11.307Z,862.9
2022-11-15T11:24:54.959Z,861.9
2022-11-15T11:26:38.690Z,859.5
2022-11-15T11:28:22.419Z,859.4
2022-11-15T11:30:06.205Z,856.5
2022-11-15T11:31:49.830Z,854.9
2022-11-15T11:33:33.510Z,853.5
2022-11-15T11:35:17.311Z,853.2
2022-11-15T11:37:01.074Z,849.5
2022-11-15T11:38:44.671Z,847.8
2022-11-15T11:40:28.397Z,844.1
2022-11-15T11:42:12.105Z,843.9
2022-11-15T11:43:55.858Z,850.9
2022-11-15T11:45:39.470Z,849.8
2022-11-15T11:47:23.198Z,847.8
2022-11-15T11:49:06.950Z,844.9
2022-11-15T11:50:50.579Z,843.9
2022-11-15T11:52:34.203Z,841
2022-11-15T11:54:17.947Z,843
2022-11-15T11:56:01.693Z,842.1
2022-11-15T11:57:45.423Z,842.8
2022-11-15T11:59:29.086Z,842
2022-11-15T12:01:12.829Z,843
2022-11-15T12:02:56.476Z,846
2022-11-15T12:04:40.204Z,845.8
2022-11-15T12:06:23.903Z,844.1
2022-11-15T12:08:07.589Z,846.4
2022-11-15T12:09:51.228Z,846
2022-11-15T12:11:34.928Z,845.2
2022-11-15T12:13:18.637Z,842.1
2022-11-15T12:15:02.459Z,840
2022-11-15T12:16:46.101Z,834.3
2022-11-15T12:18:29.865Z,832.9
2022-11-15T12:20:13.442Z,831.1
2022-11-15T12:21:57.354Z,827.6
2022-11-15T12:23:40.852Z,828.6
2022-11-15T12:25:24.669Z,828
2022-11-15T12:27:08.256Z,827.3
2022-11-15T12:28:52.044Z,827.7
2022-11-15T12:30:35.658Z,831
2022-11-15T12:32:19.358Z,832.3
2022-11-15T12:34:03.068Z,835.1
2022-11-15T12:35:46.771Z,834.3
2022-11-15T12:37:30.610Z,834.8
2022-11-15T12:39:14.269Z,830.4
2022-11-15T12:40:57.901Z,824.2
2022-11-15T12:42:41.577Z,822.5
2022-11-15T12:44:25.273Z,823.4
2022-11-15T12:46:08.984Z,827.4
2022-11-15T12:47:52.679Z,825.5
2022-11-15T12:49:36.505Z,821.8
2022-11-15T12:51:20.218Z,819.4
2022-11-15T12:53:03.957Z,818.3
2022-11-15T12:54:47.513Z,815.3
2022-11-15T12:56:31.202Z,816.1
2022-11-15T12:58:14.899Z,814.5
2022-11-15T12:59:58.600Z,814.6
2022-11-15T13:01:42.305Z,812.7
2022-11-15T13:03:26.001Z,814.8
2022-11-15T13:05:09.706Z,817
2022-11-15T13:06:53.402Z,814.5
2022-11-15T13:08:37.108Z,813.3
2022-11-15T13:10:20.873Z,812.7
2022-11-15T13:12:04.629Z,811.6
2022-11-15T13:13:48.217Z,811.8
2022-11-15T13:15:31.925Z,813.3
2022-11-15T13:17:15.618Z,813.8
2022-11-15T13:18:59.331Z,813.9
2022-11-15T13:20:43.032Z,813.5
2022-11-15T13:22:26.736Z,811.5
2022-11-15T13:24:10.439Z,806.5
2022-11-15T13:25:54.151Z,803.2
2022-11-15T13:27:37.836Z,800.7
2022-11-15T13:29:21.564Z,798
2022-11-15T13:31:05.244Z,799.9
2022-11-15T13:32:48.951Z,793.3
2022-11-15T13:36:16.353Z,800.3
2022-11-15T13:38:00.094Z,800.5
2022-11-15T13:39:43.763Z,802.3
2022-11-15T13:41:27.543Z,804.6
2022-11-15T13:43:11.239Z,805.7
2022-11-15T13:44:54.876Z,802.4
2022-11-15T13:46:38.570Z,799.4
2022-11-15T13:48:22.277Z,794.3
2022-11-15T13:50:05.979Z,791.4
2022-11-15T13:51:49.693Z,784.9
2022-11-15T13:53:33.403Z,781.1
2022-11-15T13:55:17.160Z,776.4
2022-11-15T13:57:00.986Z,775.9
2022-11-15T13:58:44.505Z,776.6
2022-11-15T14:00:28.193Z,779
2022-11-15T14:02:11.894Z,777.3
2022-11-15T14:03:55.600Z,777
2022-11-15T14:05:39.299Z,773.2
2022-11-15T14:07:23.017Z,770.4
2022-11-15T14:09:06.706Z,769.2
2022-11-15T14:10:50.413Z,770
2022-11-15T14:12:34.157Z,774.2
2022-11-15T14:14:17.890Z,773.6
2022-11-15T14:16:01.673Z,773.3
2022-11-15T14:17:45.370Z,775.3
2022-11-15T14:19:29.053Z,775.4
2022-11-15T14:21:12.634Z,777.1
2022-11-15T14:22:56.328Z,779.8
2022-11-15T14:24:40.036Z,776
2022-11-15T14:26:23.746Z,775.9
2022-11-15T14:28:07.439Z,777.2
2022-11-15T14:29:51.144Z,779.3
2022-11-15T14:31:34.849Z,778.9
2022-11-15T14:33:18.552Z,774.6
2022-11-15T14:35:02.298Z,775.1
2022-11-15T14:36:45.951Z,777.7
2022-11-15T14:38:29.657Z,777
2022-11-15T14:40:13.364Z,774.1
2022-11-15T14:41:57.098Z,773.4
2022-11-15T14:43:40.764Z,779.3
2022-11-15T14:45:24.470Z,794.9
2022-11-15T14:47:08.180Z,801.3
2022-11-15T14:48:52.049Z,795.9
2022-11-15T14:50:35.720Z,794.6
2022-11-15T14:52:19.448Z,792.3
2022-11-15T14:54:02.986Z,792.2
2022-11-15T14:55:46.696Z,792.2
2022-11-15T14:57:30.386Z,792.3
2022-11-15T14:59:14.093Z,792
2022-11-15T15:00:57.791Z,791
2022-11-15T15:02:41.499Z,790
2022-11-15T15:04:25.212Z,790.9
2022-11-15T15:06:08.916Z,791.3
2022-11-15T15:07:52.611Z,794.7
2022-11-15T15:09:36.300Z,793.3
2022-11-15T15:11:20.010Z,791.3
2022-11-15T15:13:03.721Z,789.6
2022-11-15T15:14:47.419Z,788.7
2022-11-15T15:16:31.124Z,790.2
2022-11-15T15:18:14.817Z,789.4
2022-11-15T15:19:58.525Z,784
2022-11-15T15:21:42.226Z,774.8
2022-11-15T15:23:25.935Z,772.6
2022-11-15T15:25:09.705Z,770.9
2022-11-15T15:26:53.466Z,767.8
2022-11-15T15:28:37.213Z,766.1
2022-11-15T15:30:20.741Z,760.9
2022-11-15T15:32:04.537Z,756.6
2022-11-15T15:33:48.143Z,773.7
2022-11-15T15:35:31.846Z,766.1
2022-11-15T15:37:15.540Z,758.2
2022-11-15T15:38:59.278Z,757.2
2022-11-15T15:40:42.953Z,755.1
2022-11-15T15:42:26.678Z,750.1
2022-11-15T15:44:10.476Z,752.5
2022-11-15T15:45:54.179Z,754
2022-11-15T15:47:37.795Z,751.5
2022-11-15T15:49:21.463Z,750.4
2022-11-15T15:51:05.156Z,767.1
2022-11-15T15:52:48.895Z,831.2
2022-11-15T15:54:32.567Z,813.9
2022-11-15T15:56:16.273Z,801.7
2022-11-15T15:57:59.968Z,807.2
2022-11-15T15:59:43.671Z,810.9
2022-11-15T16:01:27.379Z,808.3
2022-11-15T16:03:11.081Z,808
2022-11-15T16:04:54.780Z,808.2
2022-11-15T16:06:38.612Z,806.2
2022-11-15T16:08:22.199Z,807.5
2022-11-15T16:11:49.703Z,838.1
2022-11-15T16:13:33.295Z,1062.4
2022-11-15T16:15:17.005Z,927
2022-11-15T16:17:00.706Z,974.4
2022-11-15T16:18:44.400Z,992.3
2022-11-15T16:20:28.135Z,883
2022-11-15T16:22:11.844Z,884.1
2022-11-15T16:23:55.651Z,888.1
2022-11-15T16:25:39.212Z,895.2
2022-11-15T16:27:22.915Z,894.6
2022-11-15T16:29:06.768Z,883.8
2022-11-15T16:30:50.339Z,882.5
2022-11-15T16:32:34.038Z,886.8
2022-11-15T16:34:17.725Z,883.6
2022-11-15T16:36:01.558Z,883.1
2022-11-15T16:37:45.122Z,876.3
2022-11-15T16:39:28.880Z,872.8
2022-11-15T16:41:12.726Z,869.9
2022-11-15T16:42:56.447Z,861.3
2022-11-15T16:46:23.646Z,850.6
2022-11-15T16:48:07.355Z,850.9
2022-11-15T16:49:51.046Z,851
2022-11-15T16:51:34.872Z,844.7
2022-11-15T16:53:18.541Z,846.1
2022-11-15T16:55:02.163Z,846.6
2022-11-15T16:56:45.864Z,840.2
2022-11-15T16:58:29.564Z,835.7
2022-11-15T17:00:13.268Z,834.8
2022-11-15T17:01:57.018Z,831.2
2022-11-15T17:03:40.668Z,829.2
2022-11-15T17:05:24.380Z,827.9
2022-11-15T17:07:08.100Z,831
2022-11-15T17:08:51.777Z,831.3
2022-11-15T17:10:35.476Z,832.4
2022-11-15T17:12:19.184Z,833.2
2022-11-15T17:14:02.892Z,831
2022-11-15T17:15:46.630Z,830
2022-11-15T17:17:30.293Z,828.9
2022-11-15T17:19:13.988Z,826.2
2022-11-15T17:20:57.690Z,819.6
2022-11-15T17:22:41.398Z,821.9
2022-11-15T17:24:25.114Z,821.1
2022-11-15T17:26:08.809Z,820.1
2022-11-15T17:27:52.520Z,825
2022-11-15T17:29:36.205Z,856.3
2022-11-15T17:31:19.917Z,896.1
2022-11-15T17:33:03.614Z,876.8
2022-11-15T17:34:47.309Z,877
2022-11-15T17:36:31.022Z,880.3
2022-11-15T17:38:14.722Z,881.5
2022-11-15T17:39:58.426Z,888.2
2022-11-15T17:41:42.141Z,897.5
2022-11-15T17:43:25.826Z,905.4
2022-11-15T17:45:09.533Z,913.7
2022-11-15T17:46:53.237Z,937.6
2022-11-15T17:48:36.933Z,930
2022-11-15T17:50:20.639Z,919.4
2022-11-15T17:52:04.348Z,903.4
2022-11-15T17:53:48.043Z,886.5
2022-11-15T17:55:31.745Z,884.9
2022-11-15T17:57:15.470Z,880.8
2022-11-15T17:58:59.153Z,876.7
2022-11-15T18:00:42.854Z,875.3
2022-11-15T18:02:26.556Z,870
2022-11-15T18:04:10.287Z,874.7
2022-11-15T18:05:53.963Z,880.3
2022-11-15T18:07:37.670Z,881.6
2022-11-15T18:09:21.363Z,884.6
2022-11-15T18:11:05.074Z,883.6
2022-11-15T18:12:48.774Z,879.4
2022-11-15T18:14:32.579Z,878.8
2022-11-15T18:16:16.186Z,879.1
2022-11-15T18:17:59.895Z,881.4
2022-11-15T18:19:43.806Z,882.9
2022-11-15T18:21:27.490Z,896.9
2022-11-15T18:23:11.170Z,930.9
2022-11-15T18:24:54.878Z,926.9
2022-11-15T18:26:38.513Z,924.8
2022-11-15T18:28:22.221Z,927.2
2022-11-15T18:30:05.795Z,925.4
2022-11-15T18:31:49.675Z,919.5
2022-11-15T18:33:33.384Z,917.3
2022-11-15T18:35:17.094Z,915.2
2022-11-15T18:37:00.797Z,918.8
2022-11-15T18:38:44.473Z,915.1
2022-11-15T18:40:28.010Z,917.2
2022-11-15T18:42:11.843Z,919.7
2022-11-15T18:43:55.531Z,917.1
2022-11-15T18:45:39.303Z,916.5
2022-11-15T18:47:23.015Z,913.8
2022-11-15T18:49:06.692Z,912.8
2022-11-15T18:50:50.401Z,914.2
2022-11-15T18:52:34.108Z,912
2022-11-15T18:54:17.774Z,910.2
2022-11-15T18:56:01.414Z,908.7
2022-11-15T18:57:45.305Z,910.6
2022-11-15T18:59:28.967Z,908.5
2022-11-15T19:01:12.695Z,906.1
2022-11-15T19:02:56.403Z,904.1
2022-11-15T19:04:40.057Z,1090.9
2022-11-15T19:06:23.734Z,1154.9
2022-11-15T19:08:07.398Z,1067.3
2022-11-15T19:09:51.080Z,1000
2022-11-15T19:11:34.849Z,1044.9
2022-11-15T19:13:18.540Z,1054.8
2022-11-15T19:15:02.069Z,1073.5
2022-11-15T19:16:45.941Z,1082.7
2022-11-15T19:18:29.642Z,1076.2
2022-11-15T19:20:13.317Z,1067.7
2022-11-15T19:21:56.879Z,1062.9
2022-11-15T19:23:40.845Z,1057.2
2022-11-15T19:25:24.278Z,1053.8
2022-11-15T19:27:08.158Z,1044.5
2022-11-15T19:28:51.688Z,1040.2
2022-11-15T19:30:35.474Z,1036.3
2022-11-15T19:32:19.133Z,1033.6
2022-11-15T19:34:02.982Z,1038.5
2022-11-15T19:35:46.494Z,1037.1
2022-11-15T19:37:30.272Z,1035.6
2022-11-15T19:39:14.080Z,1032.7
2022-11-15T19:40:57.598Z,1029.4
2022-11-15T19:42:41.363Z,1022.6
2022-11-15T19:44:25.140Z,1026.2
2022-11-15T19:46:08.847Z,1040.2
2022-11-15T19:47:52.515Z,1043.2
2022-11-15T19:49:36.197Z,1042.6
2022-11-15T19:51:20.015Z,1042.4
2022-11-15T19:53:03.530Z,1039.2
2022-11-15T19:54:47.351Z,1035.9
2022-11-15T19:56:31.093Z,1037.6
2022-11-15T19:58:14.635Z,1029.5
2022-11-15T19:59:58.463Z,1012.8
2022-11-15T20:01:42.153Z,1000
2022-11-15T20:03:25.864Z,992.4
2022-11-15T20:05:09.579Z,987.1
2022-11-15T20:06:53.341Z,982.5
2022-11-15T20:08:37.010Z,969.5
2022-11-15T20:10:20.688Z,968.5
2022-11-15T20:12:04.257Z,964.6
2022-11-15T20:13:48.117Z,961.8
2022-11-15T20:15:31.660Z,953.4
2022-11-15T20:17:15.394Z,946.5
2022-11-15T20:18:59.219Z,943.1
2022-11-15T20:20:42.843Z,939.6
2022-11-15T20:22:26.667Z,931.2
2022-11-15T20:24:10.357Z,925.8
2022-11-15T20:25:54.028Z,918.9
2022-11-15T20:27:37.596Z,916
2022-11-15T20:29:21.362Z,910.4
2022-11-15T20:31:05.103Z,903.5
2022-11-15T20:32:48.689Z,901.8
2022-11-15T20:34:32.588Z,902.3
2022-11-15T20:36:16.277Z,898.2
2022-11-15T20:37:59.974Z,891.2
2022-11-15T20:39:43.667Z,885.6
2022-11-15T20:41:27.397Z,880.8
2022-11-15T20:43:10.943Z,876.9
2022-11-15T20:44:54.668Z,879.2
2022-11-15T20:48:22.178Z,873.3
2022-11-15T20:50:05.926Z,872.4
2022-11-15T20:51:49.589Z,867.4
2022-11-15T20:53:33.318Z,863.3
2022-11-15T20:55:16.963Z,863
2022-11-15T20:57:00.524Z,858.3
2022-11-15T20:58:44.247Z,856.7
2022-11-15T21:00:27.941Z,856.6
2022-11-15T21:02:11.736Z,854.3
2022-11-15T21:03:55.383Z,854.7
2022-11-15T21:05:39.194Z,848.2
2022-11-15T21:07:22.929Z,843.1
2022-11-15T21:09:06.559Z,842.2
2022-11-15T21:10:50.407Z,845.1
2022-11-15T21:12:33.982Z,846.4
2022-11-15T21:14:17.696Z,844.3
2022-11-15T21:16:01.372Z,846.3
2022-11-15T21:17:45.002Z,848.6
2022-11-15T21:19:28.713Z,842
2022-11-15T21:21:12.495Z,835.9
2022-11-15T21:22:56.213Z,836
2022-11-15T21:24:39.888Z,850.6
2022-11-15T21:26:23.669Z,855.9
2022-11-15T21:28:07.229Z,860.6
2022-11-15T21:29:51.080Z,863.6
2022-11-15T21:31:34.715Z,864.7
2022-11-15T21:33:18.471Z,865.8
2022-11-15T21:35:02.109Z,913.1
2022-11-15T21:36:45.867Z,935.9
2022-11-15T21:38:29.406Z,929.8
2022-11-15T21:40:13.112Z,932.8
2022-11-15T21:41:56.995Z,931.2
2022-11-15T21:43:40.491Z,935.6
2022-11-15T21:45:24.377Z,938.2
2022-11-15T21:47:08.053Z,933.8
2022-11-15T21:48:51.755Z,933.7
2022-11-15T21:50:35.420Z,938
2022-11-15T21:52:19.039Z,937
2022-11-15T21:54:02.979Z,940.2
2022-11-15T21:55:46.587Z,940.2
2022-11-15T21:57:30.317Z,936.6
2022-11-15T21:59:13.819Z,937.4
2022-11-15T22:00:57.517Z,940.3
2022-11-15T22:02:41.309Z,939.7
2022-11-15T22:04:25.113Z,939.3
2022-11-15T22:06:08.775Z,943.9
2022-11-15T22:07:52.320Z,942.5
2022-11-15T22:09:36.023Z,940.7
2022-11-15T22:11:19.756Z,940.8
2022-11-15T22:13:03.431Z,940.3
2022-11-15T22:14:47.130Z,942.3
2022-11-15T22:16:30.916Z,946
2022-11-15T22:18:14.642Z,944.1
2022-11-15T22:19:58.291Z,945.2
2022-11-15T22:21:42.094Z,947